<?xml version="1.0" encoding="UTF-8" standalone="no" ?>
<gpx xmlns="http://www.topografix.com/GPX/1/1" creator="MapSource 6.11.6" version="1.1" xmlns:xsi="http://www.w3.org/2001/XMLSchema-instance" xsi:schemaLocation="http://www.topografix.com/GPX/1/1 http://www.topografix.com/GPX/1/1/gpx.xsd">

 <metadata>
 <link href="http://www.garmin.com">
 <text>Garmin International</text>
 </link>
 <time>2007-12-28T15:47:40Z</time>
 <bounds maxlat="54.350494" maxlon="13.078258" minlat="54.328469" minlon="13.064179"/>
 </metadata>

 <trk>
 <name>Parow-Abzweig-HST</name>
 <extensions>
 <gpxx:TrackExtension xmlns:gpxx="http://www.garmin.com/xmlschemas/GpxExtensions/v3" xmlns:xsi="http://www.w3.org/2001/XMLSchema-instance" xsi:schemaLocation="http://www.garmin.com/xmlschemas/GpxExtensions/v3 http://www.garmin.com/xmlschemas/GpxExtensions/v3/GpxExtensionsv3.xsd">
 <gpxx:DisplayColor>Cyan</gpxx:DisplayColor>
 </gpxx:TrackExtension>
 </extensions>
 <trkseg>
 <trkpt lat="54.328867" lon="13.069280">
 <ele>7.347168</ele>
 <time>2007-12-28T13:17:39Z</time>
 </trkpt>
 <trkpt lat="54.328990" lon="13.069193">
 <ele>8.308594</ele>
 <time>2007-12-28T13:18:05Z</time>
 </trkpt>
 <trkpt lat="54.328967" lon="13.069048">
 <ele>9.269897</ele>
 <time>2007-12-28T13:18:18Z</time>
 </trkpt>
 <trkpt lat="54.329012" lon="13.068970">
 <ele>9.269897</ele>
 <time>2007-12-28T13:18:26Z</time>
 </trkpt>
 <trkpt lat="54.329165" lon="13.068791">
 <ele>8.308594</ele>
 <time>2007-12-28T13:18:42Z</time>
 </trkpt>
 <trkpt lat="54.329240" lon="13.068634">
 <ele>8.308594</ele>
 <time>2007-12-28T13:18:56Z</time>
 </trkpt>
 <trkpt lat="54.329416" lon="13.068668">
 <ele>8.308594</ele>
 <time>2007-12-28T13:19:05Z</time>
 </trkpt>
 <trkpt lat="54.329483" lon="13.068616">
 <ele>8.308594</ele>
 <time>2007-12-28T13:19:16Z</time>
 </trkpt>
 <trkpt lat="54.329531" lon="13.068611">
 <ele>8.308594</ele>
 <time>2007-12-28T13:19:19Z</time>
 </trkpt>
 <trkpt lat="54.329624" lon="13.068623">
 <ele>7.827881</ele>
 <time>2007-12-28T13:19:27Z</time>
 </trkpt>
 <trkpt lat="54.329653" lon="13.068652">
 <ele>8.308594</ele>
 <time>2007-12-28T13:19:31Z</time>
 </trkpt>
 <trkpt lat="54.329816" lon="13.068533">
 <ele>7.827881</ele>
 <time>2007-12-28T13:19:45Z</time>
 </trkpt>
 <trkpt lat="54.329835" lon="13.068516">
 <ele>8.308594</ele>
 <time>2007-12-28T13:19:47Z</time>
 </trkpt>
 <trkpt lat="54.330029" lon="13.068460">
 <ele>9.750610</ele>
 <time>2007-12-28T13:20:07Z</time>
 </trkpt>
 <trkpt lat="54.330043" lon="13.068474">
 <ele>9.269897</ele>
 <time>2007-12-28T13:20:08Z</time>
 </trkpt>
 <trkpt lat="54.330175" lon="13.068634">
 <ele>8.308594</ele>
 <time>2007-12-28T13:20:21Z</time>
 </trkpt>
 <trkpt lat="54.330327" lon="13.068898">
 <ele>8.308594</ele>
 <time>2007-12-28T13:20:36Z</time>
 </trkpt>
 <trkpt lat="54.330365" lon="13.069172">
 <ele>8.789185</ele>
 <time>2007-12-28T13:20:49Z</time>
 </trkpt>
 <trkpt lat="54.330392" lon="13.069176">
 <ele>8.308594</ele>
 <time>2007-12-28T13:21:04Z</time>
 </trkpt>
 <trkpt lat="54.330448" lon="13.069169">
 <ele>9.750610</ele>
 <time>2007-12-28T13:22:05Z</time>
 </trkpt>
 <trkpt lat="54.330572" lon="13.069089">
 <ele>9.750610</ele>
 <time>2007-12-28T13:22:15Z</time>
 </trkpt>
 <trkpt lat="54.330609" lon="13.068991">
 <ele>9.750610</ele>
 <time>2007-12-28T13:22:22Z</time>
 </trkpt>
 <trkpt lat="54.330736" lon="13.068799">
 <ele>11.192505</ele>
 <time>2007-12-28T13:22:37Z</time>
 </trkpt>
 <trkpt lat="54.330846" lon="13.068652">
 <ele>10.711792</ele>
 <time>2007-12-28T13:22:49Z</time>
 </trkpt>
 <trkpt lat="54.330915" lon="13.068606">
 <ele>10.711792</ele>
 <time>2007-12-28T13:22:54Z</time>
 </trkpt>
 <trkpt lat="54.330935" lon="13.068528">
 <ele>11.673218</ele>
 <time>2007-12-28T13:22:58Z</time>
 </trkpt>
 <trkpt lat="54.331179" lon="13.068217">
 <ele>12.153809</ele>
 <time>2007-12-28T13:23:17Z</time>
 </trkpt>
 <trkpt lat="54.331356" lon="13.068004">
 <ele>12.153809</ele>
 <time>2007-12-28T13:23:34Z</time>
 </trkpt>
 <trkpt lat="54.331420" lon="13.067933">
 <ele>12.153809</ele>
 <time>2007-12-28T13:23:42Z</time>
 </trkpt>
 <trkpt lat="54.331473" lon="13.067900">
 <ele>12.153809</ele>
 <time>2007-12-28T13:23:46Z</time>
 </trkpt>
 <trkpt lat="54.331548" lon="13.067738">
 <ele>13.115112</ele>
 <time>2007-12-28T13:24:02Z</time>
 </trkpt>
 <trkpt lat="54.331615" lon="13.067675">
 <ele>13.115112</ele>
 <time>2007-12-28T13:24:09Z</time>
 </trkpt>
 <trkpt lat="54.331690" lon="13.067464">
 <ele>14.076416</ele>
 <time>2007-12-28T13:24:22Z</time>
 </trkpt>
 <trkpt lat="54.331768" lon="13.067294">
 <ele>14.076416</ele>
 <time>2007-12-28T13:24:32Z</time>
 </trkpt>
 <trkpt lat="54.331945" lon="13.067130">
 <ele>14.076416</ele>
 <time>2007-12-28T13:24:45Z</time>
 </trkpt>
 <trkpt lat="54.332207" lon="13.066734">
 <ele>13.595825</ele>
 <time>2007-12-28T13:25:14Z</time>
 </trkpt>
 <trkpt lat="54.332329" lon="13.066582">
 <ele>14.076416</ele>
 <time>2007-12-28T13:25:28Z</time>
 </trkpt>
 <trkpt lat="54.332492" lon="13.066365">
 <ele>13.115112</ele>
 <time>2007-12-28T13:25:43Z</time>
 </trkpt>
 <trkpt lat="54.332600" lon="13.066166">
 <ele>13.115112</ele>
 <time>2007-12-28T13:25:57Z</time>
 </trkpt>
 <trkpt lat="54.332703" lon="13.065962">
 <ele>13.595825</ele>
 <time>2007-12-28T13:26:11Z</time>
 </trkpt>
 <trkpt lat="54.332823" lon="13.065796">
 <ele>13.595825</ele>
 <time>2007-12-28T13:26:25Z</time>
 </trkpt>
 <trkpt lat="54.332893" lon="13.065668">
 <ele>13.595825</ele>
 <time>2007-12-28T13:26:35Z</time>
 </trkpt>
 <trkpt lat="54.333016" lon="13.065477">
 <ele>13.595825</ele>
 <time>2007-12-28T13:26:48Z</time>
 </trkpt>
 <trkpt lat="54.333150" lon="13.065302">
 <ele>13.595825</ele>
 <time>2007-12-28T13:27:01Z</time>
 </trkpt>
 <trkpt lat="54.333293" lon="13.065090">
 <ele>13.115112</ele>
 <time>2007-12-28T13:27:16Z</time>
 </trkpt>
 <trkpt lat="54.333415" lon="13.064891">
 <ele>13.115112</ele>
 <time>2007-12-28T13:27:31Z</time>
 </trkpt>
 <trkpt lat="54.333562" lon="13.064708">
 <ele>12.634399</ele>
 <time>2007-12-28T13:27:47Z</time>
 </trkpt>
 <trkpt lat="54.333712" lon="13.064458">
 <ele>13.115112</ele>
 <time>2007-12-28T13:28:02Z</time>
 </trkpt>
 <trkpt lat="54.333902" lon="13.064212">
 <ele>12.634399</ele>
 <time>2007-12-28T13:28:17Z</time>
 </trkpt>
 <trkpt lat="54.333960" lon="13.064179">
 <ele>13.115112</ele>
 <time>2007-12-28T13:28:20Z</time>
 </trkpt>
 <trkpt lat="54.334024" lon="13.064227">
 <ele>13.115112</ele>
 <time>2007-12-28T13:28:25Z</time>
 </trkpt>
 <trkpt lat="54.334186" lon="13.064427">
 <ele>12.153809</ele>
 <time>2007-12-28T13:28:41Z</time>
 </trkpt>
 <trkpt lat="54.334330" lon="13.064654">
 <ele>11.673218</ele>
 <time>2007-12-28T13:28:57Z</time>
 </trkpt>
 <trkpt lat="54.334563" lon="13.064676">
 <ele>11.673218</ele>
 <time>2007-12-28T13:29:15Z</time>
 </trkpt>
 <trkpt lat="54.334698" lon="13.064632">
 <ele>11.673218</ele>
 <time>2007-12-28T13:29:28Z</time>
 </trkpt>
 <trkpt lat="54.334859" lon="13.064629">
 <ele>10.711792</ele>
 <time>2007-12-28T13:29:42Z</time>
 </trkpt>
 <trkpt lat="54.335057" lon="13.064568">
 <ele>11.673218</ele>
 <time>2007-12-28T13:29:58Z</time>
 </trkpt>
 <trkpt lat="54.335312" lon="13.064539">
 <ele>11.192505</ele>
 <time>2007-12-28T13:30:16Z</time>
 </trkpt>
 <trkpt lat="54.335503" lon="13.064558">
 <ele>11.192505</ele>
 <time>2007-12-28T13:30:31Z</time>
 </trkpt>
 <trkpt lat="54.335721" lon="13.064607">
 <ele>10.711792</ele>
 <time>2007-12-28T13:30:48Z</time>
 </trkpt>
 <trkpt lat="54.335936" lon="13.064688">
 <ele>10.711792</ele>
 <time>2007-12-28T13:31:06Z</time>
 </trkpt>
 <trkpt lat="54.336128" lon="13.064803">
 <ele>11.192505</ele>
 <time>2007-12-28T13:31:23Z</time>
 </trkpt>
 <trkpt lat="54.336330" lon="13.064900">
 <ele>10.711792</ele>
 <time>2007-12-28T13:31:39Z</time>
 </trkpt>
 <trkpt lat="54.336502" lon="13.064988">
 <ele>11.192505</ele>
 <time>2007-12-28T13:31:55Z</time>
 </trkpt>
 <trkpt lat="54.336650" lon="13.065166">
 <ele>11.192505</ele>
 <time>2007-12-28T13:32:12Z</time>
 </trkpt>
 <trkpt lat="54.336840" lon="13.065316">
 <ele>11.192505</ele>
 <time>2007-12-28T13:32:28Z</time>
 </trkpt>
 <trkpt lat="54.336898" lon="13.065648">
 <ele>10.231201</ele>
 <time>2007-12-28T13:32:45Z</time>
 </trkpt>
 <trkpt lat="54.336905" lon="13.065676">
 <ele>9.750610</ele>
 <time>2007-12-28T13:32:46Z</time>
 </trkpt>
 <trkpt lat="54.336904" lon="13.065814">
 <ele>10.711792</ele>
 <time>2007-12-28T13:32:52Z</time>
 </trkpt>
 <trkpt lat="54.336866" lon="13.066111">
 <ele>10.711792</ele>
 <time>2007-12-28T13:33:07Z</time>
 </trkpt>
 <trkpt lat="54.336843" lon="13.066346">
 <ele>10.711792</ele>
 <time>2007-12-28T13:33:21Z</time>
 </trkpt>
 <trkpt lat="54.336823" lon="13.066648">
 <ele>11.192505</ele>
 <time>2007-12-28T13:33:33Z</time>
 </trkpt>
 <trkpt lat="54.336812" lon="13.066761">
 <ele>11.192505</ele>
 <time>2007-12-28T13:33:38Z</time>
 </trkpt>
 <trkpt lat="54.336798" lon="13.067074">
 <ele>11.192505</ele>
 <time>2007-12-28T13:33:55Z</time>
 </trkpt>
 <trkpt lat="54.336821" lon="13.067426">
 <ele>11.192505</ele>
 <time>2007-12-28T13:34:12Z</time>
 </trkpt>
 <trkpt lat="54.336876" lon="13.067745">
 <ele>10.711792</ele>
 <time>2007-12-28T13:34:28Z</time>
 </trkpt>
 <trkpt lat="54.336991" lon="13.068105">
 <ele>10.231201</ele>
 <time>2007-12-28T13:34:45Z</time>
 </trkpt>
 <trkpt lat="54.337179" lon="13.068370">
 <ele>9.269897</ele>
 <time>2007-12-28T13:35:04Z</time>
 </trkpt>
 <trkpt lat="54.337387" lon="13.068581">
 <ele>8.789185</ele>
 <time>2007-12-28T13:35:21Z</time>
 </trkpt>
 <trkpt lat="54.337547" lon="13.068770">
 <ele>8.308594</ele>
 <time>2007-12-28T13:35:38Z</time>
 </trkpt>
 <trkpt lat="54.337653" lon="13.068927">
 <ele>8.308594</ele>
 <time>2007-12-28T13:35:49Z</time>
 </trkpt>
 <trkpt lat="54.337684" lon="13.068981">
 <ele>7.827881</ele>
 <time>2007-12-28T13:35:53Z</time>
 </trkpt>
 <trkpt lat="54.337726" lon="13.069100">
 <ele>8.789185</ele>
 <time>2007-12-28T13:36:01Z</time>
 </trkpt>
 <trkpt lat="54.337740" lon="13.069208">
 <ele>8.308594</ele>
 <time>2007-12-28T13:36:06Z</time>
 </trkpt>
 <trkpt lat="54.337836" lon="13.069503">
 <ele>8.789185</ele>
 <time>2007-12-28T13:36:21Z</time>
 </trkpt>
 <trkpt lat="54.337897" lon="13.069883">
 <ele>8.308594</ele>
 <time>2007-12-28T13:36:41Z</time>
 </trkpt>
 <trkpt lat="54.337958" lon="13.070229">
 <ele>8.308594</ele>
 <time>2007-12-28T13:36:58Z</time>
 </trkpt>
 <trkpt lat="54.338038" lon="13.070473">
 <ele>7.827881</ele>
 <time>2007-12-28T13:37:12Z</time>
 </trkpt>
 <trkpt lat="54.338122" lon="13.070812">
 <ele>8.308594</ele>
 <time>2007-12-28T13:37:29Z</time>
 </trkpt>
 <trkpt lat="54.338170" lon="13.071041">
 <ele>8.308594</ele>
 <time>2007-12-28T13:37:43Z</time>
 </trkpt>
 <trkpt lat="54.338246" lon="13.071358">
 <ele>7.827881</ele>
 <time>2007-12-28T13:37:59Z</time>
 </trkpt>
 <trkpt lat="54.338316" lon="13.071698">
 <ele>8.308594</ele>
 <time>2007-12-28T13:38:15Z</time>
 </trkpt>
 <trkpt lat="54.338330" lon="13.071736">
 <ele>7.827881</ele>
 <time>2007-12-28T13:38:18Z</time>
 </trkpt>
 <trkpt lat="54.338402" lon="13.072077">
 <ele>8.308594</ele>
 <time>2007-12-28T13:38:35Z</time>
 </trkpt>
 <trkpt lat="54.338427" lon="13.072183">
 <ele>7.827881</ele>
 <time>2007-12-28T13:38:40Z</time>
 </trkpt>
 <trkpt lat="54.338479" lon="13.072470">
 <ele>7.347168</ele>
 <time>2007-12-28T13:38:54Z</time>
 </trkpt>
 <trkpt lat="54.338535" lon="13.072769">
 <ele>7.347168</ele>
 <time>2007-12-28T13:39:09Z</time>
 </trkpt>
 <trkpt lat="54.338616" lon="13.073112">
 <ele>7.347168</ele>
 <time>2007-12-28T13:39:26Z</time>
 </trkpt>
 <trkpt lat="54.338660" lon="13.073342">
 <ele>7.347168</ele>
 <time>2007-12-28T13:39:38Z</time>
 </trkpt>
 <trkpt lat="54.338614" lon="13.073541">
 <ele>6.385864</ele>
 <time>2007-12-28T13:39:52Z</time>
 </trkpt>
 <trkpt lat="54.338566" lon="13.073598">
 <ele>6.385864</ele>
 <time>2007-12-28T13:39:58Z</time>
 </trkpt>
 <trkpt lat="54.338364" lon="13.073938">
 <ele>6.385864</ele>
 <time>2007-12-28T13:40:15Z</time>
 </trkpt>
 <trkpt lat="54.338246" lon="13.074143">
 <ele>6.385864</ele>
 <time>2007-12-28T13:40:29Z</time>
 </trkpt>
 <trkpt lat="54.338152" lon="13.074278">
 <ele>7.347168</ele>
 <time>2007-12-28T13:40:39Z</time>
 </trkpt>
 <trkpt lat="54.338124" lon="13.074324">
 <ele>6.866455</ele>
 <time>2007-12-28T13:40:42Z</time>
 </trkpt>
 <trkpt lat="54.338149" lon="13.074669">
 <ele>6.866455</ele>
 <time>2007-12-28T13:40:59Z</time>
 </trkpt>
 <trkpt lat="54.338167" lon="13.074793">
 <ele>6.866455</ele>
 <time>2007-12-28T13:41:05Z</time>
 </trkpt>
 <trkpt lat="54.338231" lon="13.075049">
 <ele>7.347168</ele>
 <time>2007-12-28T13:41:18Z</time>
 </trkpt>
 <trkpt lat="54.338235" lon="13.075087">
 <ele>7.827881</ele>
 <time>2007-12-28T13:41:20Z</time>
 </trkpt>
 <trkpt lat="54.338262" lon="13.075223">
 <ele>5.905273</ele>
 <time>2007-12-28T13:41:27Z</time>
 </trkpt>
 <trkpt lat="54.338244" lon="13.075291">
 <ele>6.866455</ele>
 <time>2007-12-28T13:41:31Z</time>
 </trkpt>
 <trkpt lat="54.338009" lon="13.075365">
 <ele>6.385864</ele>
 <time>2007-12-28T13:42:01Z</time>
 </trkpt>
 <trkpt lat="54.337958" lon="13.075376">
 <ele>5.905273</ele>
 <time>2007-12-28T13:42:05Z</time>
 </trkpt>
 <trkpt lat="54.337831" lon="13.075442">
 <ele>5.905273</ele>
 <time>2007-12-28T13:42:13Z</time>
 </trkpt>
 <trkpt lat="54.337602" lon="13.075546">
 <ele>6.866455</ele>
 <time>2007-12-28T13:42:30Z</time>
 </trkpt>
 <trkpt lat="54.337453" lon="13.075649">
 <ele>7.347168</ele>
 <time>2007-12-28T13:42:42Z</time>
 </trkpt>
 <trkpt lat="54.337333" lon="13.075782">
 <ele>6.866455</ele>
 <time>2007-12-28T13:42:57Z</time>
 </trkpt>
 <trkpt lat="54.337129" lon="13.076044">
 <ele>7.347168</ele>
 <time>2007-12-28T13:43:14Z</time>
 </trkpt>
 <trkpt lat="54.337075" lon="13.076367">
 <ele>4.943848</ele>
 <time>2007-12-28T13:43:33Z</time>
 </trkpt>
 <trkpt lat="54.337083" lon="13.076419">
 <ele>4.943848</ele>
 <time>2007-12-28T13:43:37Z</time>
 </trkpt>
 <trkpt lat="54.337119" lon="13.076582">
 <ele>3.982666</ele>
 <time>2007-12-28T13:43:47Z</time>
 </trkpt>
 <trkpt lat="54.337165" lon="13.076810">
 <ele>3.982666</ele>
 <time>2007-12-28T13:43:59Z</time>
 </trkpt>
 <trkpt lat="54.337215" lon="13.076938">
 <ele>1.579346</ele>
 <time>2007-12-28T13:44:07Z</time>
 </trkpt>
 <trkpt lat="54.337221" lon="13.077097">
 <ele>2.060059</ele>
 <time>2007-12-28T13:44:16Z</time>
 </trkpt>
 <trkpt lat="54.337259" lon="13.077370">
 <ele>0.137451</ele>
 <time>2007-12-28T13:44:33Z</time>
 </trkpt>
 <trkpt lat="54.337258" lon="13.077376">
 <ele>0.618042</ele>
 <time>2007-12-28T13:44:34Z</time>
 </trkpt>
 <trkpt lat="54.337281" lon="13.077540">
 <ele>-0.343384</ele>
 <time>2007-12-28T13:44:45Z</time>
 </trkpt>
 <trkpt lat="54.337335" lon="13.077787">
 <ele>-0.824097</ele>
 <time>2007-12-28T13:45:01Z</time>
 </trkpt>
 <trkpt lat="54.337356" lon="13.078002">
 <ele>-1.304688</ele>
 <time>2007-12-28T13:45:13Z</time>
 </trkpt>
 <trkpt lat="54.337368" lon="13.078244">
 <ele>-0.824097</ele>
 <time>2007-12-28T13:45:32Z</time>
 </trkpt>
 <trkpt lat="54.337372" lon="13.078258">
 <ele>-0.824097</ele>
 <time>2007-12-28T13:45:40Z</time>
 </trkpt>
 <trkpt lat="54.337520" lon="13.078258">
 <ele>-1.304688</ele>
 <time>2007-12-28T13:45:58Z</time>
 </trkpt>
 <trkpt lat="54.337647" lon="13.078199">
 <ele>-0.824097</ele>
 <time>2007-12-28T13:46:13Z</time>
 </trkpt>
 <trkpt lat="54.337785" lon="13.078149">
 <ele>0.137451</ele>
 <time>2007-12-28T13:46:28Z</time>
 </trkpt>
 <trkpt lat="54.337889" lon="13.078112">
 <ele>-0.343384</ele>
 <time>2007-12-28T13:46:46Z</time>
 </trkpt>
 <trkpt lat="54.338056" lon="13.078009">
 <ele>-0.343384</ele>
 <time>2007-12-28T13:47:02Z</time>
 </trkpt>
 <trkpt lat="54.338208" lon="13.077880">
 <ele>-0.343384</ele>
 <time>2007-12-28T13:47:17Z</time>
 </trkpt>
 <trkpt lat="54.338330" lon="13.077755">
 <ele>0.137451</ele>
 <time>2007-12-28T13:47:30Z</time>
 </trkpt>
 <trkpt lat="54.338362" lon="13.077740">
 <ele>0.618042</ele>
 <time>2007-12-28T13:47:33Z</time>
 </trkpt>
 <trkpt lat="54.338453" lon="13.077621">
 <ele>2.540649</ele>
 <time>2007-12-28T13:47:46Z</time>
 </trkpt>
 <trkpt lat="54.338482" lon="13.077559">
 <ele>3.021240</ele>
 <time>2007-12-28T13:47:52Z</time>
 </trkpt>
 <trkpt lat="54.338498" lon="13.077505">
 <ele>2.540649</ele>
 <time>2007-12-28T13:48:08Z</time>
 </trkpt>
 <trkpt lat="54.338507" lon="13.077489">
 <ele>2.060059</ele>
 <time>2007-12-28T13:48:11Z</time>
 </trkpt>
 <trkpt lat="54.338607" lon="13.077372">
 <ele>3.021240</ele>
 <time>2007-12-28T13:48:23Z</time>
 </trkpt>
 <trkpt lat="54.338762" lon="13.077252">
 <ele>3.501953</ele>
 <time>2007-12-28T13:48:40Z</time>
 </trkpt>
 <trkpt lat="54.338888" lon="13.077225">
 <ele>4.943848</ele>
 <time>2007-12-28T13:48:58Z</time>
 </trkpt>
 <trkpt lat="54.339061" lon="13.077191">
 <ele>4.943848</ele>
 <time>2007-12-28T13:49:12Z</time>
 </trkpt>
 <trkpt lat="54.339128" lon="13.077177">
 <ele>4.943848</ele>
 <time>2007-12-28T13:49:26Z</time>
 </trkpt>
 <trkpt lat="54.339291" lon="13.077129">
 <ele>5.424561</ele>
 <time>2007-12-28T13:49:45Z</time>
 </trkpt>
 <trkpt lat="54.339464" lon="13.077088">
 <ele>5.424561</ele>
 <time>2007-12-28T13:50:02Z</time>
 </trkpt>
 <trkpt lat="54.339625" lon="13.076960">
 <ele>5.905273</ele>
 <time>2007-12-28T13:50:22Z</time>
 </trkpt>
 <trkpt lat="54.339770" lon="13.076812">
 <ele>5.424561</ele>
 <time>2007-12-28T13:50:35Z</time>
 </trkpt>
 <trkpt lat="54.340135" lon="13.076601">
 <ele>5.905273</ele>
 <time>2007-12-28T13:51:01Z</time>
 </trkpt>
 <trkpt lat="54.340346" lon="13.076528">
 <ele>5.905273</ele>
 <time>2007-12-28T13:51:26Z</time>
 </trkpt>
 <trkpt lat="54.340780" lon="13.076281">
 <ele>6.385864</ele>
 <time>2007-12-28T13:52:08Z</time>
 </trkpt>
 <trkpt lat="54.340935" lon="13.076173">
 <ele>5.905273</ele>
 <time>2007-12-28T13:52:25Z</time>
 </trkpt>
 <trkpt lat="54.341102" lon="13.075706">
 <ele>7.827881</ele>
 <time>2007-12-28T13:53:11Z</time>
 </trkpt>
 <trkpt lat="54.341052" lon="13.075225">
 <ele>7.827881</ele>
 <time>2007-12-28T13:53:34Z</time>
 </trkpt>
 <trkpt lat="54.341050" lon="13.075020">
 <ele>8.308594</ele>
 <time>2007-12-28T13:53:48Z</time>
 </trkpt>
 <trkpt lat="54.341028" lon="13.074886">
 <ele>8.308594</ele>
 <time>2007-12-28T13:54:08Z</time>
 </trkpt>
 <trkpt lat="54.341019" lon="13.074860">
 <ele>7.347168</ele>
 <time>2007-12-28T13:54:18Z</time>
 </trkpt>
 <trkpt lat="54.340951" lon="13.074663">
 <ele>7.827881</ele>
 <time>2007-12-28T13:54:31Z</time>
 </trkpt>
 <trkpt lat="54.340931" lon="13.074306">
 <ele>9.269897</ele>
 <time>2007-12-28T13:54:48Z</time>
 </trkpt>
 <trkpt lat="54.340918" lon="13.074015">
 <ele>8.789185</ele>
 <time>2007-12-28T13:55:04Z</time>
 </trkpt>
 <trkpt lat="54.340903" lon="13.073733">
 <ele>8.789185</ele>
 <time>2007-12-28T13:55:19Z</time>
 </trkpt>
 <trkpt lat="54.340903" lon="13.073354">
 <ele>9.269897</ele>
 <time>2007-12-28T13:55:39Z</time>
 </trkpt>
 <trkpt lat="54.340886" lon="13.073230">
 <ele>9.269897</ele>
 <time>2007-12-28T13:55:46Z</time>
 </trkpt>
 <trkpt lat="54.340846" lon="13.072916">
 <ele>9.269897</ele>
 <time>2007-12-28T13:56:03Z</time>
 </trkpt>
 <trkpt lat="54.340835" lon="13.072591">
 <ele>10.231201</ele>
 <time>2007-12-28T13:56:19Z</time>
 </trkpt>
 <trkpt lat="54.340828" lon="13.072316">
 <ele>10.231201</ele>
 <time>2007-12-28T13:56:33Z</time>
 </trkpt>
 <trkpt lat="54.340824" lon="13.071999">
 <ele>10.711792</ele>
 <time>2007-12-28T13:56:49Z</time>
 </trkpt>
 <trkpt lat="54.340844" lon="13.071891">
 <ele>11.192505</ele>
 <time>2007-12-28T13:56:54Z</time>
 </trkpt>
 <trkpt lat="54.340876" lon="13.071617">
 <ele>11.673218</ele>
 <time>2007-12-28T13:57:09Z</time>
 </trkpt>
 <trkpt lat="54.340881" lon="13.071363">
 <ele>12.153809</ele>
 <time>2007-12-28T13:57:22Z</time>
 </trkpt>
 <trkpt lat="54.340926" lon="13.071260">
 <ele>12.153809</ele>
 <time>2007-12-28T13:57:40Z</time>
 </trkpt>
 <trkpt lat="54.340961" lon="13.071153">
 <ele>12.634399</ele>
 <time>2007-12-28T13:57:52Z</time>
 </trkpt>
 <trkpt lat="54.341085" lon="13.070920">
 <ele>12.153809</ele>
 <time>2007-12-28T13:58:12Z</time>
 </trkpt>
 <trkpt lat="54.341180" lon="13.070828">
 <ele>12.634399</ele>
 <time>2007-12-28T13:58:21Z</time>
 </trkpt>
 <trkpt lat="54.341365" lon="13.070616">
 <ele>12.634399</ele>
 <time>2007-12-28T13:58:41Z</time>
 </trkpt>
 <trkpt lat="54.341474" lon="13.070435">
 <ele>13.595825</ele>
 <time>2007-12-28T13:58:55Z</time>
 </trkpt>
 <trkpt lat="54.341585" lon="13.070339">
 <ele>13.115112</ele>
 <time>2007-12-28T13:59:05Z</time>
 </trkpt>
 <trkpt lat="54.341801" lon="13.070130">
 <ele>12.634399</ele>
 <time>2007-12-28T13:59:28Z</time>
 </trkpt>
 <trkpt lat="54.341927" lon="13.070017">
 <ele>12.634399</ele>
 <time>2007-12-28T13:59:41Z</time>
 </trkpt>
 <trkpt lat="54.342241" lon="13.069662">
 <ele>12.153809</ele>
 <time>2007-12-28T14:00:10Z</time>
 </trkpt>
 <trkpt lat="54.342457" lon="13.069435">
 <ele>13.115112</ele>
 <time>2007-12-28T14:00:33Z</time>
 </trkpt>
 <trkpt lat="54.342622" lon="13.069261">
 <ele>13.115112</ele>
 <time>2007-12-28T14:00:53Z</time>
 </trkpt>
 <trkpt lat="54.342761" lon="13.069126">
 <ele>13.595825</ele>
 <time>2007-12-28T14:01:09Z</time>
 </trkpt>
 <trkpt lat="54.342901" lon="13.068956">
 <ele>14.076416</ele>
 <time>2007-12-28T14:01:24Z</time>
 </trkpt>
 <trkpt lat="54.343188" lon="13.068775">
 <ele>14.557007</ele>
 <time>2007-12-28T14:01:48Z</time>
 </trkpt>
 <trkpt lat="54.343315" lon="13.068672">
 <ele>13.595825</ele>
 <time>2007-12-28T14:02:03Z</time>
 </trkpt>
 <trkpt lat="54.343519" lon="13.068612">
 <ele>13.595825</ele>
 <time>2007-12-28T14:02:18Z</time>
 </trkpt>
 <trkpt lat="54.343730" lon="13.068560">
 <ele>14.076416</ele>
 <time>2007-12-28T14:02:37Z</time>
 </trkpt>
 <trkpt lat="54.343855" lon="13.068427">
 <ele>14.076416</ele>
 <time>2007-12-28T14:02:51Z</time>
 </trkpt>
 <trkpt lat="54.343871" lon="13.068397">
 <ele>14.076416</ele>
 <time>2007-12-28T14:02:53Z</time>
 </trkpt>
 <trkpt lat="54.344045" lon="13.068402">
 <ele>14.076416</ele>
 <time>2007-12-28T14:03:08Z</time>
 </trkpt>
 <trkpt lat="54.344108" lon="13.068397">
 <ele>13.115112</ele>
 <time>2007-12-28T14:03:14Z</time>
 </trkpt>
 <trkpt lat="54.344291" lon="13.068466">
 <ele>14.557007</ele>
 <time>2007-12-28T14:03:31Z</time>
 </trkpt>
 <trkpt lat="54.344426" lon="13.068553">
 <ele>13.595825</ele>
 <time>2007-12-28T14:03:46Z</time>
 </trkpt>
 <trkpt lat="54.344537" lon="13.068593">
 <ele>14.557007</ele>
 <time>2007-12-28T14:04:02Z</time>
 </trkpt>
 <trkpt lat="54.344678" lon="13.068668">
 <ele>15.037720</ele>
 <time>2007-12-28T14:04:16Z</time>
 </trkpt>
 <trkpt lat="54.344832" lon="13.068736">
 <ele>14.557007</ele>
 <time>2007-12-28T14:04:29Z</time>
 </trkpt>
 <trkpt lat="54.344981" lon="13.068812">
 <ele>15.037720</ele>
 <time>2007-12-28T14:04:43Z</time>
 </trkpt>
 <trkpt lat="54.345154" lon="13.068876">
 <ele>15.037720</ele>
 <time>2007-12-28T14:04:58Z</time>
 </trkpt>
 <trkpt lat="54.345164" lon="13.068874">
 <ele>14.557007</ele>
 <time>2007-12-28T14:05:00Z</time>
 </trkpt>
 <trkpt lat="54.345323" lon="13.068927">
 <ele>14.557007</ele>
 <time>2007-12-28T14:05:15Z</time>
 </trkpt>
 <trkpt lat="54.345461" lon="13.068932">
 <ele>15.518433</ele>
 <time>2007-12-28T14:05:28Z</time>
 </trkpt>
 <trkpt lat="54.345604" lon="13.068972">
 <ele>14.557007</ele>
 <time>2007-12-28T14:05:42Z</time>
 </trkpt>
 <trkpt lat="54.345734" lon="13.068987">
 <ele>15.518433</ele>
 <time>2007-12-28T14:05:54Z</time>
 </trkpt>
 <trkpt lat="54.345928" lon="13.068950">
 <ele>15.518433</ele>
 <time>2007-12-28T14:06:08Z</time>
 </trkpt>
 <trkpt lat="54.346113" lon="13.068972">
 <ele>15.518433</ele>
 <time>2007-12-28T14:06:24Z</time>
 </trkpt>
 <trkpt lat="54.346407" lon="13.068929">
 <ele>15.518433</ele>
 <time>2007-12-28T14:06:48Z</time>
 </trkpt>
 <trkpt lat="54.346663" lon="13.068976">
 <ele>14.557007</ele>
 <time>2007-12-28T14:07:11Z</time>
 </trkpt>
 <trkpt lat="54.346785" lon="13.068990">
 <ele>15.037720</ele>
 <time>2007-12-28T14:07:22Z</time>
 </trkpt>
 <trkpt lat="54.347035" lon="13.068982">
 <ele>14.076416</ele>
 <time>2007-12-28T14:07:42Z</time>
 </trkpt>
 <trkpt lat="54.347259" lon="13.068986">
 <ele>14.076416</ele>
 <time>2007-12-28T14:07:59Z</time>
 </trkpt>
 <trkpt lat="54.347433" lon="13.069009">
 <ele>13.115112</ele>
 <time>2007-12-28T14:08:15Z</time>
 </trkpt>
 <trkpt lat="54.347706" lon="13.069011">
 <ele>12.153809</ele>
 <time>2007-12-28T14:08:37Z</time>
 </trkpt>
 <trkpt lat="54.347882" lon="13.069056">
 <ele>11.673218</ele>
 <time>2007-12-28T14:08:51Z</time>
 </trkpt>
 <trkpt lat="54.348065" lon="13.069048">
 <ele>11.192505</ele>
 <time>2007-12-28T14:09:08Z</time>
 </trkpt>
 <trkpt lat="54.348278" lon="13.069057">
 <ele>9.750610</ele>
 <time>2007-12-28T14:09:25Z</time>
 </trkpt>
 <trkpt lat="54.348465" lon="13.069071">
 <ele>9.269897</ele>
 <time>2007-12-28T14:09:40Z</time>
 </trkpt>
 <trkpt lat="54.348646" lon="13.069073">
 <ele>9.750610</ele>
 <time>2007-12-28T14:09:57Z</time>
 </trkpt>
 <trkpt lat="54.348805" lon="13.069082">
 <ele>8.789185</ele>
 <time>2007-12-28T14:10:11Z</time>
 </trkpt>
 <trkpt lat="54.348990" lon="13.069070">
 <ele>7.827881</ele>
 <time>2007-12-28T14:10:29Z</time>
 </trkpt>
 <trkpt lat="54.349186" lon="13.069091">
 <ele>7.347168</ele>
 <time>2007-12-28T14:10:46Z</time>
 </trkpt>
 <trkpt lat="54.349347" lon="13.069116">
 <ele>7.347168</ele>
 <time>2007-12-28T14:11:02Z</time>
 </trkpt>
 <trkpt lat="54.349463" lon="13.069128">
 <ele>6.866455</ele>
 <time>2007-12-28T14:11:12Z</time>
 </trkpt>
 <trkpt lat="54.349707" lon="13.069146">
 <ele>6.866455</ele>
 <time>2007-12-28T14:11:32Z</time>
 </trkpt>
 <trkpt lat="54.349897" lon="13.069134">
 <ele>5.905273</ele>
 <time>2007-12-28T14:11:49Z</time>
 </trkpt>
 <trkpt lat="54.350081" lon="13.069180">
 <ele>5.424561</ele>
 <time>2007-12-28T14:12:05Z</time>
 </trkpt>
 <trkpt lat="54.350217" lon="13.069210">
 <ele>4.463257</ele>
 <time>2007-12-28T14:12:16Z</time>
 </trkpt>
 <trkpt lat="54.350374" lon="13.069265">
 <ele>4.463257</ele>
 <time>2007-12-28T14:12:33Z</time>
 </trkpt>
 <trkpt lat="54.350494" lon="13.069290">
 <ele>4.943848</ele>
 <time>2007-12-28T14:12:47Z</time>
 </trkpt>
 <trkpt lat="54.350457" lon="13.069302">
 <ele>4.463257</ele>
 <time>2007-12-28T14:13:55Z</time>
 </trkpt>
 <trkpt lat="54.350284" lon="13.069224">
 <ele>5.424561</ele>
 <time>2007-12-28T14:14:11Z</time>
 </trkpt>
 <trkpt lat="54.350129" lon="13.069165">
 <ele>4.943848</ele>
 <time>2007-12-28T14:14:26Z</time>
 </trkpt>
 <trkpt lat="54.350120" lon="13.069161">
 <ele>5.424561</ele>
 <time>2007-12-28T14:14:27Z</time>
 </trkpt>
 <trkpt lat="54.350064" lon="13.069157">
 <ele>4.463257</ele>
 <time>2007-12-28T14:14:32Z</time>
 </trkpt>
 <trkpt lat="54.349826" lon="13.069128">
 <ele>7.827881</ele>
 <time>2007-12-28T14:14:57Z</time>
 </trkpt>
 <trkpt lat="54.349609" lon="13.069090">
 <ele>6.866455</ele>
 <time>2007-12-28T14:15:19Z</time>
 </trkpt>
 <trkpt lat="54.349515" lon="13.069093">
 <ele>6.866455</ele>
 <time>2007-12-28T14:15:26Z</time>
 </trkpt>
 <trkpt lat="54.349382" lon="13.069075">
 <ele>7.347168</ele>
 <time>2007-12-28T14:15:46Z</time>
 </trkpt>
 <trkpt lat="54.349254" lon="13.069105">
 <ele>7.347168</ele>
 <time>2007-12-28T14:16:10Z</time>
 </trkpt>
 <trkpt lat="54.349224" lon="13.069102">
 <ele>7.827881</ele>
 <time>2007-12-28T14:16:13Z</time>
 </trkpt>
 <trkpt lat="54.349086" lon="13.069104">
 <ele>9.269897</ele>
 <time>2007-12-28T14:16:26Z</time>
 </trkpt>
 <trkpt lat="54.348872" lon="13.069112">
 <ele>8.789185</ele>
 <time>2007-12-28T14:16:44Z</time>
 </trkpt>
 <trkpt lat="54.348810" lon="13.069101">
 <ele>8.789185</ele>
 <time>2007-12-28T14:16:49Z</time>
 </trkpt>
 <trkpt lat="54.348766" lon="13.069093">
 <ele>8.308594</ele>
 <time>2007-12-28T14:16:53Z</time>
 </trkpt>
 <trkpt lat="54.348628" lon="13.069108">
 <ele>7.827881</ele>
 <time>2007-12-28T14:17:04Z</time>
 </trkpt>
 <trkpt lat="54.348464" lon="13.069115">
 <ele>8.789185</ele>
 <time>2007-12-28T14:17:18Z</time>
 </trkpt>
 <trkpt lat="54.348346" lon="13.069103">
 <ele>9.750610</ele>
 <time>2007-12-28T14:17:30Z</time>
 </trkpt>
 <trkpt lat="54.348172" lon="13.069106">
 <ele>9.750610</ele>
 <time>2007-12-28T14:17:45Z</time>
 </trkpt>
 <trkpt lat="54.347867" lon="13.069134">
 <ele>10.711792</ele>
 <time>2007-12-28T14:18:13Z</time>
 </trkpt>
 <trkpt lat="54.347815" lon="13.069144">
 <ele>11.192505</ele>
 <time>2007-12-28T14:18:17Z</time>
 </trkpt>
 <trkpt lat="54.347729" lon="13.069138">
 <ele>10.711792</ele>
 <time>2007-12-28T14:18:24Z</time>
 </trkpt>
 <trkpt lat="54.347395" lon="13.069181">
 <ele>12.634399</ele>
 <time>2007-12-28T14:18:56Z</time>
 </trkpt>
 <trkpt lat="54.347102" lon="13.069089">
 <ele>13.595825</ele>
 <time>2007-12-28T14:19:19Z</time>
 </trkpt>
 <trkpt lat="54.346995" lon="13.069102">
 <ele>13.115112</ele>
 <time>2007-12-28T14:19:28Z</time>
 </trkpt>
 <trkpt lat="54.346801" lon="13.069044">
 <ele>14.557007</ele>
 <time>2007-12-28T14:19:42Z</time>
 </trkpt>
 <trkpt lat="54.346687" lon="13.069022">
 <ele>14.557007</ele>
 <time>2007-12-28T14:19:52Z</time>
 </trkpt>
 <trkpt lat="54.346667" lon="13.069018">
 <ele>14.557007</ele>
 <time>2007-12-28T14:19:53Z</time>
 </trkpt>
 <trkpt lat="54.346522" lon="13.069011">
 <ele>15.037720</ele>
 <time>2007-12-28T14:20:06Z</time>
 </trkpt>
 <trkpt lat="54.346348" lon="13.068994">
 <ele>14.557007</ele>
 <time>2007-12-28T14:20:20Z</time>
 </trkpt>
 <trkpt lat="54.346225" lon="13.069007">
 <ele>14.557007</ele>
 <time>2007-12-28T14:20:30Z</time>
 </trkpt>
 <trkpt lat="54.346031" lon="13.069008">
 <ele>15.037720</ele>
 <time>2007-12-28T14:20:47Z</time>
 </trkpt>
 <trkpt lat="54.345892" lon="13.069022">
 <ele>15.037720</ele>
 <time>2007-12-28T14:20:58Z</time>
 </trkpt>
 <trkpt lat="54.345683" lon="13.068983">
 <ele>14.076416</ele>
 <time>2007-12-28T14:21:14Z</time>
 </trkpt>
 <trkpt lat="54.345584" lon="13.068958">
 <ele>13.595825</ele>
 <time>2007-12-28T14:21:25Z</time>
 </trkpt>
 <trkpt lat="54.345381" lon="13.068911">
 <ele>13.595825</ele>
 <time>2007-12-28T14:21:38Z</time>
 </trkpt>
 <trkpt lat="54.345347" lon="13.068917">
 <ele>13.595825</ele>
 <time>2007-12-28T14:21:41Z</time>
 </trkpt>
 <trkpt lat="54.345292" lon="13.068920">
 <ele>12.634399</ele>
 <time>2007-12-28T14:21:45Z</time>
 </trkpt>
 <trkpt lat="54.345092" lon="13.068850">
 <ele>13.115112</ele>
 <time>2007-12-28T14:22:00Z</time>
 </trkpt>
 <trkpt lat="54.345006" lon="13.068823">
 <ele>13.595825</ele>
 <time>2007-12-28T14:22:08Z</time>
 </trkpt>
 <trkpt lat="54.344829" lon="13.068788">
 <ele>13.595825</ele>
 <time>2007-12-28T14:22:24Z</time>
 </trkpt>
 <trkpt lat="54.344665" lon="13.068705">
 <ele>14.076416</ele>
 <time>2007-12-28T14:22:38Z</time>
 </trkpt>
 <trkpt lat="54.344502" lon="13.068622">
 <ele>13.595825</ele>
 <time>2007-12-28T14:22:53Z</time>
 </trkpt>
 <trkpt lat="54.344316" lon="13.068515">
 <ele>13.595825</ele>
 <time>2007-12-28T14:23:09Z</time>
 </trkpt>
 <trkpt lat="54.344185" lon="13.068444">
 <ele>13.595825</ele>
 <time>2007-12-28T14:23:22Z</time>
 </trkpt>
 <trkpt lat="54.344005" lon="13.068291">
 <ele>14.557007</ele>
 <time>2007-12-28T14:23:38Z</time>
 </trkpt>
 <trkpt lat="54.343840" lon="13.068216">
 <ele>13.595825</ele>
 <time>2007-12-28T14:23:50Z</time>
 </trkpt>
 <trkpt lat="54.343652" lon="13.068122">
 <ele>14.557007</ele>
 <time>2007-12-28T14:24:05Z</time>
 </trkpt>
 <trkpt lat="54.343531" lon="13.068058">
 <ele>15.037720</ele>
 <time>2007-12-28T14:24:15Z</time>
 </trkpt>
 <trkpt lat="54.343366" lon="13.067975">
 <ele>14.557007</ele>
 <time>2007-12-28T14:24:29Z</time>
 </trkpt>
 <trkpt lat="54.343260" lon="13.067913">
 <ele>14.557007</ele>
 <time>2007-12-28T14:24:41Z</time>
 </trkpt>
 <trkpt lat="54.343036" lon="13.067812">
 <ele>13.595825</ele>
 <time>2007-12-28T14:24:56Z</time>
 </trkpt>
 <trkpt lat="54.342848" lon="13.067757">
 <ele>14.076416</ele>
 <time>2007-12-28T14:25:11Z</time>
 </trkpt>
 <trkpt lat="54.342581" lon="13.067617">
 <ele>14.076416</ele>
 <time>2007-12-28T14:25:34Z</time>
 </trkpt>
 <trkpt lat="54.342450" lon="13.067546">
 <ele>13.595825</ele>
 <time>2007-12-28T14:25:45Z</time>
 </trkpt>
 <trkpt lat="54.342097" lon="13.067428">
 <ele>15.037720</ele>
 <time>2007-12-28T14:26:20Z</time>
 </trkpt>
 <trkpt lat="54.341818" lon="13.067249">
 <ele>14.557007</ele>
 <time>2007-12-28T14:26:46Z</time>
 </trkpt>
 <trkpt lat="54.341672" lon="13.067140">
 <ele>13.595825</ele>
 <time>2007-12-28T14:26:58Z</time>
 </trkpt>
 <trkpt lat="54.341553" lon="13.067105">
 <ele>13.115112</ele>
 <time>2007-12-28T14:27:08Z</time>
 </trkpt>
 <trkpt lat="54.341242" lon="13.066910">
 <ele>14.076416</ele>
 <time>2007-12-28T14:27:32Z</time>
 </trkpt>
 <trkpt lat="54.341174" lon="13.066881">
 <ele>14.076416</ele>
 <time>2007-12-28T14:27:39Z</time>
 </trkpt>
 <trkpt lat="54.341085" lon="13.066844">
 <ele>13.595825</ele>
 <time>2007-12-28T14:27:46Z</time>
 </trkpt>
 <trkpt lat="54.340925" lon="13.066794">
 <ele>13.595825</ele>
 <time>2007-12-28T14:28:01Z</time>
 </trkpt>
 <trkpt lat="54.340747" lon="13.066757">
 <ele>13.115112</ele>
 <time>2007-12-28T14:28:17Z</time>
 </trkpt>
 <trkpt lat="54.340556" lon="13.066665">
 <ele>13.115112</ele>
 <time>2007-12-28T14:28:34Z</time>
 </trkpt>
 <trkpt lat="54.340379" lon="13.066579">
 <ele>10.711792</ele>
 <time>2007-12-28T14:28:49Z</time>
 </trkpt>
 <trkpt lat="54.340209" lon="13.066511">
 <ele>10.231201</ele>
 <time>2007-12-28T14:29:02Z</time>
 </trkpt>
 <trkpt lat="54.340042" lon="13.066444">
 <ele>9.750610</ele>
 <time>2007-12-28T14:29:16Z</time>
 </trkpt>
 <trkpt lat="54.339871" lon="13.066374">
 <ele>9.269897</ele>
 <time>2007-12-28T14:29:29Z</time>
 </trkpt>
 <trkpt lat="54.339722" lon="13.066326">
 <ele>9.269897</ele>
 <time>2007-12-28T14:29:41Z</time>
 </trkpt>
 <trkpt lat="54.339715" lon="13.066298">
 <ele>8.308594</ele>
 <time>2007-12-28T14:29:43Z</time>
 </trkpt>
 <trkpt lat="54.339554" lon="13.066207">
 <ele>8.789185</ele>
 <time>2007-12-28T14:29:56Z</time>
 </trkpt>
 <trkpt lat="54.339374" lon="13.066182">
 <ele>8.789185</ele>
 <time>2007-12-28T14:30:13Z</time>
 </trkpt>
 <trkpt lat="54.339303" lon="13.066090">
 <ele>8.789185</ele>
 <time>2007-12-28T14:30:19Z</time>
 </trkpt>
 <trkpt lat="54.339132" lon="13.066031">
 <ele>7.827881</ele>
 <time>2007-12-28T14:30:35Z</time>
 </trkpt>
 <trkpt lat="54.339048" lon="13.065980">
 <ele>8.308594</ele>
 <time>2007-12-28T14:30:43Z</time>
 </trkpt>
 <trkpt lat="54.338849" lon="13.065863">
 <ele>8.308594</ele>
 <time>2007-12-28T14:30:58Z</time>
 </trkpt>
 <trkpt lat="54.338621" lon="13.065831">
 <ele>8.789185</ele>
 <time>2007-12-28T14:31:19Z</time>
 </trkpt>
 <trkpt lat="54.338440" lon="13.065829">
 <ele>8.308594</ele>
 <time>2007-12-28T14:31:32Z</time>
 </trkpt>
 <trkpt lat="54.338357" lon="13.065784">
 <ele>8.308594</ele>
 <time>2007-12-28T14:31:41Z</time>
 </trkpt>
 <trkpt lat="54.338036" lon="13.065638">
 <ele>8.789185</ele>
 <time>2007-12-28T14:32:03Z</time>
 </trkpt>
 <trkpt lat="54.337794" lon="13.065518">
 <ele>7.827881</ele>
 <time>2007-12-28T14:32:26Z</time>
 </trkpt>
 <trkpt lat="54.337587" lon="13.065440">
 <ele>7.827881</ele>
 <time>2007-12-28T14:32:44Z</time>
 </trkpt>
 <trkpt lat="54.337347" lon="13.065341">
 <ele>8.789185</ele>
 <time>2007-12-28T14:33:03Z</time>
 </trkpt>
 <trkpt lat="54.337166" lon="13.065272">
 <ele>8.308594</ele>
 <time>2007-12-28T14:33:18Z</time>
 </trkpt>
 <trkpt lat="54.337017" lon="13.065208">
 <ele>7.827881</ele>
 <time>2007-12-28T14:33:32Z</time>
 </trkpt>
 <trkpt lat="54.336861" lon="13.065145">
 <ele>7.827881</ele>
 <time>2007-12-28T14:33:44Z</time>
 </trkpt>
 <trkpt lat="54.336712" lon="13.065063">
 <ele>8.308594</ele>
 <time>2007-12-28T14:33:57Z</time>
 </trkpt>
 <trkpt lat="54.336618" lon="13.065000">
 <ele>8.308594</ele>
 <time>2007-12-28T14:34:04Z</time>
 </trkpt>
 <trkpt lat="54.336441" lon="13.064938">
 <ele>8.308594</ele>
 <time>2007-12-28T14:34:19Z</time>
 </trkpt>
 <trkpt lat="54.336258" lon="13.064849">
 <ele>8.789185</ele>
 <time>2007-12-28T14:34:34Z</time>
 </trkpt>
 <trkpt lat="54.336082" lon="13.064772">
 <ele>9.750610</ele>
 <time>2007-12-28T14:34:47Z</time>
 </trkpt>
 <trkpt lat="54.335936" lon="13.064708">
 <ele>9.750610</ele>
 <time>2007-12-28T14:35:00Z</time>
 </trkpt>
 <trkpt lat="54.335808" lon="13.064664">
 <ele>9.269897</ele>
 <time>2007-12-28T14:35:11Z</time>
 </trkpt>
 <trkpt lat="54.335646" lon="13.064622">
 <ele>8.789185</ele>
 <time>2007-12-28T14:35:25Z</time>
 </trkpt>
 <trkpt lat="54.335479" lon="13.064586">
 <ele>10.231201</ele>
 <time>2007-12-28T14:35:38Z</time>
 </trkpt>
 <trkpt lat="54.335458" lon="13.064586">
 <ele>9.750610</ele>
 <time>2007-12-28T14:35:40Z</time>
 </trkpt>
 <trkpt lat="54.335425" lon="13.064587">
 <ele>9.269897</ele>
 <time>2007-12-28T14:35:42Z</time>
 </trkpt>
 <trkpt lat="54.335225" lon="13.064578">
 <ele>9.269897</ele>
 <time>2007-12-28T14:35:59Z</time>
 </trkpt>
 <trkpt lat="54.335057" lon="13.064584">
 <ele>9.750610</ele>
 <time>2007-12-28T14:36:12Z</time>
 </trkpt>
 <trkpt lat="54.334848" lon="13.064617">
 <ele>9.750610</ele>
 <time>2007-12-28T14:36:29Z</time>
 </trkpt>
 <trkpt lat="54.334672" lon="13.064664">
 <ele>9.269897</ele>
 <time>2007-12-28T14:36:43Z</time>
 </trkpt>
 <trkpt lat="54.334582" lon="13.064695">
 <ele>9.750610</ele>
 <time>2007-12-28T14:36:52Z</time>
 </trkpt>
 <trkpt lat="54.334423" lon="13.064716">
 <ele>10.711792</ele>
 <time>2007-12-28T14:37:05Z</time>
 </trkpt>
 <trkpt lat="54.334399" lon="13.064706">
 <ele>9.750610</ele>
 <time>2007-12-28T14:37:07Z</time>
 </trkpt>
 <trkpt lat="54.334215" lon="13.064480">
 <ele>10.711792</ele>
 <time>2007-12-28T14:37:25Z</time>
 </trkpt>
 <trkpt lat="54.334174" lon="13.064367">
 <ele>11.673218</ele>
 <time>2007-12-28T14:37:37Z</time>
 </trkpt>
 <trkpt lat="54.334154" lon="13.064335">
 <ele>11.673218</ele>
 <time>2007-12-28T14:37:42Z</time>
 </trkpt>
 <trkpt lat="54.333904" lon="13.064302">
 <ele>11.673218</ele>
 <time>2007-12-28T14:38:08Z</time>
 </trkpt>
 <trkpt lat="54.333743" lon="13.064555">
 <ele>10.711792</ele>
 <time>2007-12-28T14:38:24Z</time>
 </trkpt>
 <trkpt lat="54.333614" lon="13.064778">
 <ele>11.673218</ele>
 <time>2007-12-28T14:38:39Z</time>
 </trkpt>
 <trkpt lat="54.333485" lon="13.065039">
 <ele>11.673218</ele>
 <time>2007-12-28T14:38:57Z</time>
 </trkpt>
 <trkpt lat="54.333320" lon="13.065323">
 <ele>11.673218</ele>
 <time>2007-12-28T14:39:15Z</time>
 </trkpt>
 <trkpt lat="54.333133" lon="13.065590">
 <ele>11.192505</ele>
 <time>2007-12-28T14:39:34Z</time>
 </trkpt>
 <trkpt lat="54.333129" lon="13.065608">
 <ele>10.711792</ele>
 <time>2007-12-28T14:39:35Z</time>
 </trkpt>
 <trkpt lat="54.333043" lon="13.065712">
 <ele>10.711792</ele>
 <time>2007-12-28T14:39:44Z</time>
 </trkpt>
 <trkpt lat="54.332889" lon="13.065962">
 <ele>11.192505</ele>
 <time>2007-12-28T14:40:01Z</time>
 </trkpt>
 <trkpt lat="54.332777" lon="13.066069">
 <ele>11.192505</ele>
 <time>2007-12-28T14:40:12Z</time>
 </trkpt>
 <trkpt lat="54.332635" lon="13.066243">
 <ele>11.673218</ele>
 <time>2007-12-28T14:40:26Z</time>
 </trkpt>
 <trkpt lat="54.332535" lon="13.066345">
 <ele>11.673218</ele>
 <time>2007-12-28T14:40:36Z</time>
 </trkpt>
 <trkpt lat="54.332405" lon="13.066532">
 <ele>11.673218</ele>
 <time>2007-12-28T14:40:49Z</time>
 </trkpt>
 <trkpt lat="54.332286" lon="13.066730">
 <ele>11.673218</ele>
 <time>2007-12-28T14:41:02Z</time>
 </trkpt>
 <trkpt lat="54.332258" lon="13.066745">
 <ele>11.673218</ele>
 <time>2007-12-28T14:41:05Z</time>
 </trkpt>
 <trkpt lat="54.332066" lon="13.066969">
 <ele>12.153809</ele>
 <time>2007-12-28T14:41:24Z</time>
 </trkpt>
 <trkpt lat="54.331915" lon="13.067201">
 <ele>12.153809</ele>
 <time>2007-12-28T14:41:39Z</time>
 </trkpt>
 <trkpt lat="54.331807" lon="13.067403">
 <ele>11.673218</ele>
 <time>2007-12-28T14:41:53Z</time>
 </trkpt>
 <trkpt lat="54.331774" lon="13.067450">
 <ele>10.711792</ele>
 <time>2007-12-28T14:41:56Z</time>
 </trkpt>
 <trkpt lat="54.331650" lon="13.067581">
 <ele>11.192505</ele>
 <time>2007-12-28T14:42:08Z</time>
 </trkpt>
 <trkpt lat="54.331629" lon="13.067599">
 <ele>11.673218</ele>
 <time>2007-12-28T14:42:10Z</time>
 </trkpt>
 <trkpt lat="54.331526" lon="13.067776">
 <ele>11.673218</ele>
 <time>2007-12-28T14:42:21Z</time>
 </trkpt>
 <trkpt lat="54.331390" lon="13.067895">
 <ele>11.673218</ele>
 <time>2007-12-28T14:42:34Z</time>
 </trkpt>
 <trkpt lat="54.331273" lon="13.068047">
 <ele>11.192505</ele>
 <time>2007-12-28T14:42:45Z</time>
 </trkpt>
 <trkpt lat="54.331215" lon="13.068085">
 <ele>11.192505</ele>
 <time>2007-12-28T14:42:50Z</time>
 </trkpt>
 <trkpt lat="54.331074" lon="13.068209">
 <ele>11.192505</ele>
 <time>2007-12-28T14:43:03Z</time>
 </trkpt>
 <trkpt lat="54.331052" lon="13.068237">
 <ele>11.192505</ele>
 <time>2007-12-28T14:43:05Z</time>
 </trkpt>
 <trkpt lat="54.330992" lon="13.068302">
 <ele>10.711792</ele>
 <time>2007-12-28T14:43:11Z</time>
 </trkpt>
 <trkpt lat="54.330853" lon="13.068486">
 <ele>10.711792</ele>
 <time>2007-12-28T14:43:25Z</time>
 </trkpt>
 <trkpt lat="54.330771" lon="13.068646">
 <ele>10.231201</ele>
 <time>2007-12-28T14:43:34Z</time>
 </trkpt>
 <trkpt lat="54.330604" lon="13.068896">
 <ele>11.192505</ele>
 <time>2007-12-28T14:43:51Z</time>
 </trkpt>
 <trkpt lat="54.330525" lon="13.069015">
 <ele>9.750610</ele>
 <time>2007-12-28T14:44:00Z</time>
 </trkpt>
 <trkpt lat="54.330425" lon="13.069148">
 <ele>10.231201</ele>
 <time>2007-12-28T14:44:15Z</time>
 </trkpt>
 <trkpt lat="54.330399" lon="13.069162">
 <ele>9.750610</ele>
 <time>2007-12-28T14:44:42Z</time>
 </trkpt>
 <trkpt lat="54.330277" lon="13.069173">
 <ele>9.269897</ele>
 <time>2007-12-28T14:44:52Z</time>
 </trkpt>
 <trkpt lat="54.330155" lon="13.068934">
 <ele>10.231201</ele>
 <time>2007-12-28T14:45:07Z</time>
 </trkpt>
 <trkpt lat="54.330043" lon="13.068665">
 <ele>9.269897</ele>
 <time>2007-12-28T14:45:22Z</time>
 </trkpt>
 <trkpt lat="54.330009" lon="13.068628">
 <ele>9.750610</ele>
 <time>2007-12-28T14:45:25Z</time>
 </trkpt>
 <trkpt lat="54.329922" lon="13.068347">
 <ele>9.750610</ele>
 <time>2007-12-28T14:45:40Z</time>
 </trkpt>
 <trkpt lat="54.329912" lon="13.068331">
 <ele>9.750610</ele>
 <time>2007-12-28T14:45:41Z</time>
 </trkpt>
 <trkpt lat="54.329852" lon="13.068349">
 <ele>9.750610</ele>
 <time>2007-12-28T14:45:46Z</time>
 </trkpt>
 <trkpt lat="54.329764" lon="13.068539">
 <ele>9.750610</ele>
 <time>2007-12-28T14:45:57Z</time>
 </trkpt>
 <trkpt lat="54.329699" lon="13.068604">
 <ele>9.269897</ele>
 <time>2007-12-28T14:46:04Z</time>
 </trkpt>
 <trkpt lat="54.329654" lon="13.068599">
 <ele>9.750610</ele>
 <time>2007-12-28T14:46:08Z</time>
 </trkpt>
 <trkpt lat="54.329545" lon="13.068595">
 <ele>9.750610</ele>
 <time>2007-12-28T14:46:21Z</time>
 </trkpt>
 <trkpt lat="54.329461" lon="13.068609">
 <ele>9.269897</ele>
 <time>2007-12-28T14:46:27Z</time>
 </trkpt>
 <trkpt lat="54.329388" lon="13.068631">
 <ele>9.750610</ele>
 <time>2007-12-28T14:46:32Z</time>
 </trkpt>
 <trkpt lat="54.329288" lon="13.068623">
 <ele>9.750610</ele>
 <time>2007-12-28T14:46:42Z</time>
 </trkpt>
 <trkpt lat="54.329280" lon="13.068577">
 <ele>9.750610</ele>
 <time>2007-12-28T14:46:43Z</time>
 </trkpt>
 <trkpt lat="54.329252" lon="13.068567">
 <ele>9.750610</ele>
 <time>2007-12-28T14:46:47Z</time>
 </trkpt>
 <trkpt lat="54.329212" lon="13.068673">
 <ele>9.750610</ele>
 <time>2007-12-28T14:46:53Z</time>
 </trkpt>
 <trkpt lat="54.329082" lon="13.068854">
 <ele>9.269897</ele>
 <time>2007-12-28T14:47:07Z</time>
 </trkpt>
 <trkpt lat="54.329005" lon="13.068970">
 <ele>10.231201</ele>
 <time>2007-12-28T14:47:16Z</time>
 </trkpt>
 <trkpt lat="54.328905" lon="13.069198">
 <ele>9.750610</ele>
 <time>2007-12-28T14:47:30Z</time>
 </trkpt>
 <trkpt lat="54.328799" lon="13.069379">
 <ele>8.789185</ele>
 <time>2007-12-28T14:47:45Z</time>
 </trkpt>
 <trkpt lat="54.328672" lon="13.069566">
 <ele>7.827881</ele>
 <time>2007-12-28T14:47:57Z</time>
 </trkpt>
 <trkpt lat="54.328611" lon="13.069647">
 <ele>8.308594</ele>
 <time>2007-12-28T14:48:02Z</time>
 </trkpt>
 <trkpt lat="54.328514" lon="13.069846">
 <ele>8.789185</ele>
 <time>2007-12-28T14:48:16Z</time>
 </trkpt>
 <trkpt lat="54.328504" lon="13.069901">
 <ele>8.789185</ele>
 <time>2007-12-28T14:48:19Z</time>
 </trkpt>
 <trkpt lat="54.328469" lon="13.069957">
 <ele>8.308594</ele>
 <time>2007-12-28T14:48:23Z</time>
 </trkpt>
 </trkseg>
 </trk>

</gpx>
